sensor_id;sensor_type;location;lat;lon;timestamp;P1;durP1;ratioP1;P2;durP2;ratioP2
79047;SDS011;68680;50.764;6.120;2023-05-25T00:01:27;10.23;;;5.30;;
79047;SDS011;68680;50.764;6.120;2023-05-25T00:03:53;9.15;;;5.35;;
79047;SDS011;68680;50.764;6.120;2023-05-25T00:06:19;9.75;;;5.95;;
79047;SDS011;68680;50.764;6.120;2023-05-25T00:08:46;8.90;;;5.45;;
79047;SDS011;68680;50.764;6.120;2023-05-25T00:11:12;10.15;;;6.00;;
79047;SDS011;68680;50.764;6.120;2023-05-25T00:13:38;10.63;;;6.10;;
79047;SDS011;68680;50.764;6.120;2023-05-25T00:16:04;9.23;;;5.82;;
79047;SDS011;68680;50.764;6.120;2023-05-25T00:18:31;12.98;;;6.03;;
79047;SDS011;68680;50.764;6.120;2023-05-25T00:20:57;11.20;;;5.75;;
79047;SDS011;68680;50.764;6.120;2023-05-25T00:23:22;11.30;;;5.78;;
79047;SDS011;68680;50.764;6.120;2023-05-25T00:25:50;11.07;;;5.60;;
79047;SDS011;68680;50.764;6.120;2023-05-25T00:28:15;11.20;;;6.07;;
79047;SDS011;68680;50.764;6.120;2023-05-25T00:30:41;20.42;;;6.70;;
79047;SDS011;68680;50.764;6.120;2023-05-25T00:33:07;10.35;;;5.57;;
79047;SDS011;68680;50.764;6.120;2023-05-25T00:35:33;11.90;;;6.43;;
79047;SDS011;68680;50.764;6.120;2023-05-25T00:37:58;11.23;;;6.38;;
79047;SDS011;68680;50.764;6.120;2023-05-25T00:40:24;12.07;;;6.53;;
79047;SDS011;68680;50.764;6.120;2023-05-25T00:42:51;11.05;;;6.57;;
79047;SDS011;68680;50.764;6.120;2023-05-25T00:45:17;12.38;;;6.75;;
79047;SDS011;68680;50.764;6.120;2023-05-25T00:47:43;13.70;;;6.35;;
79047;SDS011;68680;50.764;6.120;2023-05-25T00:50:15;11.15;;;6.40;;
79047;SDS011;68680;50.764;6.120;2023-05-25T00:52:55;12.05;;;7.03;;
79047;SDS011;68680;50.764;6.120;2023-05-25T00:55:21;9.60;;;6.18;;
79047;SDS011;68680;50.764;6.120;2023-05-25T00:57:49;10.40;;;6.22;;
79047;SDS011;68680;50.764;6.120;2023-05-25T01:00:19;12.90;;;7.03;;
79047;SDS011;68680;50.764;6.120;2023-05-25T01:02:46;13.75;;;6.32;;
79047;SDS011;68680;50.764;6.120;2023-05-25T01:05:15;11.00;;;6.70;;
79047;SDS011;68680;50.764;6.120;2023-05-25T01:07:44;11.90;;;6.63;;
79047;SDS011;68680;50.764;6.120;2023-05-25T01:10:11;12.05;;;6.75;;
79047;SDS011;68680;50.764;6.120;2023-05-25T01:12:40;11.15;;;6.50;;
79047;SDS011;68680;50.764;6.120;2023-05-25T01:15:11;12.65;;;7.95;;
79047;SDS011;68680;50.764;6.120;2023-05-25T01:17:37;12.68;;;6.72;;
79047;SDS011;68680;50.764;6.120;2023-05-25T01:20:03;12.27;;;6.80;;
79047;SDS011;68680;50.764;6.120;2023-05-25T01:22:33;14.20;;;7.05;;
79047;SDS011;68680;50.764;6.120;2023-05-25T01:25:05;11.20;;;6.70;;
79047;SDS011;68680;50.764;6.120;2023-05-25T01:27:38;12.65;;;6.57;;
79047;SDS011;68680;50.764;6.120;2023-05-25T01:30:09;18.05;;;7.13;;
79047;SDS011;68680;50.764;6.120;2023-05-25T01:32:39;14.93;;;7.53;;
79047;SDS011;68680;50.764;6.120;2023-05-25T01:35:07;15.02;;;7.53;;
79047;SDS011;68680;50.764;6.120;2023-05-25T01:37:36;11.90;;;6.95;;
79047;SDS011;68680;50.764;6.120;2023-05-25T01:40:02;13.23;;;7.13;;
79047;SDS011;68680;50.764;6.120;2023-05-25T01:42:29;13.60;;;7.05;;
79047;SDS011;68680;50.764;6.120;2023-05-25T01:44:54;18.15;;;7.25;;
79047;SDS011;68680;50.764;6.120;2023-05-25T01:47:22;12.45;;;7.32;;
79047;SDS011;68680;50.764;6.120;2023-05-25T01:50:02;12.32;;;6.85;;
79047;SDS011;68680;50.764;6.120;2023-05-25T01:52:42;9.15;;;6.03;;
79047;SDS011;68680;50.764;6.120;2023-05-25T01:55:19;8.20;;;5.70;;
79047;SDS011;68680;50.764;6.120;2023-05-25T01:57:48;11.07;;;6.38;;
79047;SDS011;68680;50.764;6.120;2023-05-25T02:00:19;12.90;;;6.80;;
79047;SDS011;68680;50.764;6.120;2023-05-25T02:02:46;9.80;;;6.38;;
79047;SDS011;68680;50.764;6.120;2023-05-25T02:05:14;9.35;;;6.53;;
79047;SDS011;68680;50.764;6.120;2023-05-25T02:07:44;13.73;;;6.18;;
79047;SDS011;68680;50.764;6.120;2023-05-25T02:10:10;14.20;;;7.30;;
79047;SDS011;68680;50.764;6.120;2023-05-25T02:12:36;18.08;;;7.20;;
79047;SDS011;68680;50.764;6.120;2023-05-25T02:15:03;14.27;;;7.97;;
79047;SDS011;68680;50.764;6.120;2023-05-25T02:17:29;14.25;;;7.38;;
79047;SDS011;68680;50.764;6.120;2023-05-25T02:19:55;13.60;;;7.07;;
79047;SDS011;68680;50.764;6.120;2023-05-25T02:22:21;18.48;;;8.48;;
79047;SDS011;68680;50.764;6.120;2023-05-25T02:24:49;15.60;;;7.55;;
79047;SDS011;68680;50.764;6.120;2023-05-25T02:27:14;14.25;;;7.50;;
79047;SDS011;68680;50.764;6.120;2023-05-25T02:29:40;13.93;;;7.45;;
79047;SDS011;68680;50.764;6.120;2023-05-25T02:32:06;17.27;;;7.50;;
79047;SDS011;68680;50.764;6.120;2023-05-25T02:34:32;15.75;;;7.43;;
79047;SDS011;68680;50.764;6.120;2023-05-25T02:36:59;14.98;;;7.28;;
79047;SDS011;68680;50.764;6.120;2023-05-25T02:39:25;13.65;;;7.55;;
79047;SDS011;68680;50.764;6.120;2023-05-25T02:41:52;14.68;;;7.57;;
79047;SDS011;68680;50.764;6.120;2023-05-25T02:44:18;11.52;;;7.20;;
79047;SDS011;68680;50.764;6.120;2023-05-25T02:46:44;14.73;;;7.85;;
79047;SDS011;68680;50.764;6.120;2023-05-25T02:49:10;9.13;;;6.30;;
79047;SDS011;68680;50.764;6.120;2023-05-25T02:51:36;15.45;;;7.10;;
79047;SDS011;68680;50.764;6.120;2023-05-25T02:54:01;13.15;;;7.47;;
79047;SDS011;68680;50.764;6.120;2023-05-25T02:56:27;10.23;;;7.07;;
79047;SDS011;68680;50.764;6.120;2023-05-25T02:58:54;9.55;;;6.28;;
79047;SDS011;68680;50.764;6.120;2023-05-25T03:01:20;12.68;;;6.97;;
79047;SDS011;68680;50.764;6.120;2023-05-25T03:03:46;11.30;;;7.75;;
79047;SDS011;68680;50.764;6.120;2023-05-25T03:06:13;17.67;;;8.15;;
79047;SDS011;68680;50.764;6.120;2023-05-25T03:08:38;14.48;;;7.45;;
79047;SDS011;68680;50.764;6.120;2023-05-25T03:11:04;15.30;;;7.63;;
79047;SDS011;68680;50.764;6.120;2023-05-25T03:13:30;22.42;;;9.13;;
79047;SDS011;68680;50.764;6.120;2023-05-25T03:15:57;19.98;;;9.02;;
79047;SDS011;68680;50.764;6.120;2023-05-25T03:18:23;14.75;;;8.65;;
79047;SDS011;68680;50.764;6.120;2023-05-25T03:20:49;18.67;;;7.63;;
79047;SDS011;68680;50.764;6.120;2023-05-25T03:23:15;15.25;;;7.70;;
79047;SDS011;68680;50.764;6.120;2023-05-25T03:25:41;14.73;;;7.75;;
79047;SDS011;68680;50.764;6.120;2023-05-25T03:28:07;17.85;;;9.65;;
79047;SDS011;68680;50.764;6.120;2023-05-25T03:30:32;13.18;;;7.65;;
79047;SDS011;68680;50.764;6.120;2023-05-25T03:32:59;15.20;;;7.82;;
79047;SDS011;68680;50.764;6.120;2023-05-25T03:35:25;12.95;;;8.00;;
79047;SDS011;68680;50.764;6.120;2023-05-25T03:37:51;14.90;;;8.13;;
79047;SDS011;68680;50.764;6.120;2023-05-25T03:40:17;16.02;;;7.38;;
79047;SDS011;68680;50.764;6.120;2023-05-25T03:42:43;13.63;;;7.85;;
79047;SDS011;68680;50.764;6.120;2023-05-25T03:45:09;13.15;;;7.03;;
79047;SDS011;68680;50.764;6.120;2023-05-25T03:47:35;13.77;;;7.72;;
79047;SDS011;68680;50.764;6.120;2023-05-25T03:50:02;12.48;;;7.13;;
79047;SDS011;68680;50.764;6.120;2023-05-25T03:52:29;13.48;;;7.25;;
79047;SDS011;68680;50.764;6.120;2023-05-25T03:54:55;14.80;;;7.20;;
79047;SDS011;68680;50.764;6.120;2023-05-25T03:57:20;16.75;;;8.40;;
79047;SDS011;68680;50.764;6.120;2023-05-25T03:59:46;20.05;;;7.63;;
79047;SDS011;68680;50.764;6.120;2023-05-25T04:02:12;11.88;;;7.35;;
79047;SDS011;68680;50.764;6.120;2023-05-25T04:04:38;13.60;;;7.38;;
79047;SDS011;68680;50.764;6.120;2023-05-25T04:07:05;16.35;;;8.05;;
79047;SDS011;68680;50.764;6.120;2023-05-25T04:09:31;16.65;;;8.45;;
79047;SDS011;68680;50.764;6.120;2023-05-25T04:11:56;13.57;;;7.38;;
79047;SDS011;68680;50.764;6.120;2023-05-25T04:14:22;16.52;;;7.50;;
79047;SDS011;68680;50.764;6.120;2023-05-25T04:16:48;16.55;;;8.20;;
79047;SDS011;68680;50.764;6.120;2023-05-25T04:19:14;14.40;;;7.78;;
79047;SDS011;68680;50.764;6.120;2023-05-25T04:21:39;15.73;;;8.38;;
79047;SDS011;68680;50.764;6.120;2023-05-25T04:24:07;16.55;;;7.40;;
79047;SDS011;68680;50.764;6.120;2023-05-25T04:26:32;15.00;;;7.25;;
79047;SDS011;68680;50.764;6.120;2023-05-25T04:28:58;14.05;;;7.75;;
79047;SDS011;68680;50.764;6.120;2023-05-25T04:31:24;15.07;;;7.68;;
79047;SDS011;68680;50.764;6.120;2023-05-25T04:33:50;14.63;;;7.97;;
79047;SDS011;68680;50.764;6.120;2023-05-25T04:36:15;13.02;;;7.50;;
79047;SDS011;68680;50.764;6.120;2023-05-25T04:38:41;16.95;;;7.97;;
79047;SDS011;68680;50.764;6.120;2023-05-25T04:41:08;16.05;;;7.50;;
79047;SDS011;68680;50.764;6.120;2023-05-25T04:43:34;13.20;;;7.90;;
79047;SDS011;68680;50.764;6.120;2023-05-25T04:46:00;16.35;;;9.18;;
79047;SDS011;68680;50.764;6.120;2023-05-25T04:48:26;13.77;;;8.43;;
79047;SDS011;68680;50.764;6.120;2023-05-25T04:50:52;13.63;;;7.88;;
79047;SDS011;68680;50.764;6.120;2023-05-25T04:53:17;14.50;;;8.05;;
79047;SDS011;68680;50.764;6.120;2023-05-25T04:55:43;21.33;;;9.82;;
79047;SDS011;68680;50.764;6.120;2023-05-25T04:58:10;15.55;;;8.25;;
79047;SDS011;68680;50.764;6.120;2023-05-25T05:00:36;13.65;;;7.93;;
79047;SDS011;68680;50.764;6.120;2023-05-25T05:03:02;11.13;;;7.47;;
79047;SDS011;68680;50.764;6.120;2023-05-25T05:05:28;15.82;;;8.75;;
79047;SDS011;68680;50.764;6.120;2023-05-25T05:07:53;13.57;;;8.20;;
79047;SDS011;68680;50.764;6.120;2023-05-25T05:10:19;16.25;;;8.38;;
79047;SDS011;68680;50.764;6.120;2023-05-25T05:12:45;16.83;;;8.70;;
79047;SDS011;68680;50.764;6.120;2023-05-25T05:15:12;15.88;;;8.75;;
79047;SDS011;68680;50.764;6.120;2023-05-25T05:17:38;14.93;;;9.23;;
79047;SDS011;68680;50.764;6.120;2023-05-25T05:20:03;17.73;;;9.07;;
79047;SDS011;68680;50.764;6.120;2023-05-25T05:22:31;19.55;;;9.07;;
79047;SDS011;68680;50.764;6.120;2023-05-25T05:24:57;21.45;;;9.73;;
79047;SDS011;68680;50.764;6.120;2023-05-25T05:27:23;18.67;;;10.25;;
79047;SDS011;68680;50.764;6.120;2023-05-25T05:29:48;19.17;;;9.05;;
79047;SDS011;68680;50.764;6.120;2023-05-25T05:32:15;24.73;;;11.10;;
79047;SDS011;68680;50.764;6.120;2023-05-25T05:34:41;20.23;;;10.82;;
79047;SDS011;68680;50.764;6.120;2023-05-25T05:37:06;16.35;;;9.48;;
79047;SDS011;68680;50.764;6.120;2023-05-25T05:39:32;19.35;;;9.95;;
79047;SDS011;68680;50.764;6.120;2023-05-25T05:41:57;22.58;;;10.27;;
79047;SDS011;68680;50.764;6.120;2023-05-25T05:44:23;24.92;;;11.57;;
79047;SDS011;68680;50.764;6.120;2023-05-25T05:46:49;30.08;;;11.38;;
79047;SDS011;68680;50.764;6.120;2023-05-25T05:49:16;19.77;;;10.60;;
79047;SDS011;68680;50.764;6.120;2023-05-25T05:51:41;20.75;;;11.05;;
79047;SDS011;68680;50.764;6.120;2023-05-25T05:54:07;19.45;;;9.85;;
79047;SDS011;68680;50.764;6.120;2023-05-25T05:56:32;22.20;;;11.27;;
79047;SDS011;68680;50.764;6.120;2023-05-25T05:58:58;24.55;;;10.82;;
79047;SDS011;68680;50.764;6.120;2023-05-25T06:01:24;23.35;;;10.82;;
79047;SDS011;68680;50.764;6.120;2023-05-25T06:03:49;16.88;;;9.77;;
79047;SDS011;68680;50.764;6.120;2023-05-25T06:06:16;18.63;;;9.45;;
79047;SDS011;68680;50.764;6.120;2023-05-25T06:08:42;19.20;;;9.25;;
79047;SDS011;68680;50.764;6.120;2023-05-25T06:11:08;20.42;;;9.55;;
79047;SDS011;68680;50.764;6.120;2023-05-25T06:13:33;25.70;;;9.50;;
79047;SDS011;68680;50.764;6.120;2023-05-25T06:15:59;15.77;;;8.70;;
79047;SDS011;68680;50.764;6.120;2023-05-25T06:18:25;13.90;;;8.35;;
79047;SDS011;68680;50.764;6.120;2023-05-25T06:20:50;22.65;;;10.00;;
79047;SDS011;68680;50.764;6.120;2023-05-25T06:23:17;18.65;;;9.02;;
79047;SDS011;68680;50.764;6.120;2023-05-25T06:25:43;24.00;;;9.05;;
79047;SDS011;68680;50.764;6.120;2023-05-25T06:28:08;21.17;;;9.43;;
79047;SDS011;68680;50.764;6.120;2023-05-25T06:30:34;16.60;;;8.95;;
79047;SDS011;68680;50.764;6.120;2023-05-25T06:33:00;27.25;;;11.02;;
79047;SDS011;68680;50.764;6.120;2023-05-25T06:35:26;17.23;;;9.23;;
79047;SDS011;68680;50.764;6.120;2023-05-25T06:37:51;22.60;;;9.75;;
79047;SDS011;68680;50.764;6.120;2023-05-25T06:40:18;22.92;;;10.18;;
79047;SDS011;68680;50.764;6.120;2023-05-25T06:42:44;19.23;;;10.35;;
79047;SDS011;68680;50.764;6.120;2023-05-25T06:45:09;19.40;;;10.68;;
79047;SDS011;68680;50.764;6.120;2023-05-25T06:47:35;19.52;;;9.77;;
79047;SDS011;68680;50.764;6.120;2023-05-25T06:50:01;21.27;;;10.35;;
79047;SDS011;68680;50.764;6.120;2023-05-25T06:52:27;19.70;;;9.48;;
79047;SDS011;68680;50.764;6.120;2023-05-25T06:54:53;19.63;;;10.07;;
79047;SDS011;68680;50.764;6.120;2023-05-25T06:57:20;22.58;;;9.88;;
79047;SDS011;68680;50.764;6.120;2023-05-25T06:59:46;24.40;;;9.65;;
79047;SDS011;68680;50.764;6.120;2023-05-25T07:02:11;24.23;;;9.40;;
79047;SDS011;68680;50.764;6.120;2023-05-25T07:04:37;22.23;;;10.18;;
79047;SDS011;68680;50.764;6.120;2023-05-25T07:07:02;21.33;;;11.07;;
79047;SDS011;68680;50.764;6.120;2023-05-25T07:09:28;24.70;;;9.80;;
79047;SDS011;68680;50.764;6.120;2023-05-25T07:11:54;37.65;;;9.68;;
79047;SDS011;68680;50.764;6.120;2023-05-25T07:14:21;24.20;;;9.57;;
79047;SDS011;68680;50.764;6.120;2023-05-25T07:16:46;25.25;;;10.27;;
79047;SDS011;68680;50.764;6.120;2023-05-25T07:19:12;25.00;;;8.90;;
79047;SDS011;68680;50.764;6.120;2023-05-25T07:21:37;23.40;;;10.00;;
79047;SDS011;68680;50.764;6.120;2023-05-25T07:24:03;24.75;;;9.05;;
79047;SDS011;68680;50.764;6.120;2023-05-25T07:26:29;17.98;;;9.63;;
79047;SDS011;68680;50.764;6.120;2023-05-25T07:28:55;22.42;;;8.95;;
79047;SDS011;68680;50.764;6.120;2023-05-25T07:31:22;21.48;;;9.23;;
79047;SDS011;68680;50.764;6.120;2023-05-25T07:33:48;22.17;;;9.13;;
79047;SDS011;68680;50.764;6.120;2023-05-25T07:36:14;20.48;;;9.07;;
79047;SDS011;68680;50.764;6.120;2023-05-25T07:38:39;13.35;;;7.93;;
79047;SDS011;68680;50.764;6.120;2023-05-25T07:41:05;18.45;;;9.25;;
79047;SDS011;68680;50.764;6.120;2023-05-25T07:43:31;23.27;;;9.40;;
79047;SDS011;68680;50.764;6.120;2023-05-25T07:45:57;19.40;;;10.35;;
79047;SDS011;68680;50.764;6.120;2023-05-25T07:48:24;17.27;;;10.45;;
79047;SDS011;68680;50.764;6.120;2023-05-25T07:50:50;21.17;;;10.80;;
79047;SDS011;68680;50.764;6.120;2023-05-25T07:53:15;24.98;;;11.15;;
79047;SDS011;68680;50.764;6.120;2023-05-25T07:55:41;15.55;;;9.52;;
79047;SDS011;68680;50.764;6.120;2023-05-25T07:58:07;28.48;;;10.95;;
79047;SDS011;68680;50.764;6.120;2023-05-25T08:00:33;20.60;;;11.35;;
79047;SDS011;68680;50.764;6.120;2023-05-25T08:02:59;22.75;;;11.43;;
79047;SDS011;68680;50.764;6.120;2023-05-25T08:05:26;24.23;;;11.50;;
79047;SDS011;68680;50.764;6.120;2023-05-25T08:07:51;22.67;;;10.77;;
79047;SDS011;68680;50.764;6.120;2023-05-25T08:10:17;23.13;;;11.10;;
79047;SDS011;68680;50.764;6.120;2023-05-25T08:12:42;17.15;;;9.38;;
79047;SDS011;68680;50.764;6.120;2023-05-25T08:15:08;22.50;;;10.23;;
79047;SDS011;68680;50.764;6.120;2023-05-25T08:17:34;19.10;;;9.65;;
79047;SDS011;68680;50.764;6.120;2023-05-25T08:19:59;21.42;;;10.10;;
79047;SDS011;68680;50.764;6.120;2023-05-25T08:22:26;15.43;;;9.60;;
79047;SDS011;68680;50.764;6.120;2023-05-25T08:24:52;30.60;;;11.55;;
79047;SDS011;68680;50.764;6.120;2023-05-25T08:27:18;21.42;;;10.75;;
79047;SDS011;68680;50.764;6.120;2023-05-25T08:29:43;21.35;;;10.48;;
79047;SDS011;68680;50.764;6.120;2023-05-25T08:32:09;20.48;;;10.13;;
79047;SDS011;68680;50.764;6.120;2023-05-25T08:34:34;20.90;;;10.95;;
79047;SDS011;68680;50.764;6.120;2023-05-25T08:37:00;17.70;;;10.82;;
79047;SDS011;68680;50.764;6.120;2023-05-25T08:39:27;20.80;;;10.52;;
79047;SDS011;68680;50.764;6.120;2023-05-25T08:41:53;15.55;;;10.32;;
79047;SDS011;68680;50.764;6.120;2023-05-25T08:44:19;19.45;;;11.10;;
79047;SDS011;68680;50.764;6.120;2023-05-25T08:46:45;20.95;;;10.82;;
79047;SDS011;68680;50.764;6.120;2023-05-25T08:49:12;22.52;;;10.02;;
79047;SDS011;68680;50.764;6.120;2023-05-25T08:51:40;25.20;;;12.02;;
79047;SDS011;68680;50.764;6.120;2023-05-25T08:54:08;23.92;;;11.48;;
79047;SDS011;68680;50.764;6.120;2023-05-25T08:56:36;20.70;;;11.65;;
79047;SDS011;68680;50.764;6.120;2023-05-25T08:59:08;20.20;;;12.00;;
79047;SDS011;68680;50.764;6.120;2023-05-25T09:01:43;23.73;;;11.65;;
79047;SDS011;68680;50.764;6.120;2023-05-25T09:04:12;25.10;;;12.18;;
79047;SDS011;68680;50.764;6.120;2023-05-25T09:06:38;22.25;;;11.93;;
79047;SDS011;68680;50.764;6.120;2023-05-25T09:09:04;17.92;;;11.93;;
79047;SDS011;68680;50.764;6.120;2023-05-25T09:11:30;22.05;;;12.80;;
79047;SDS011;68680;50.764;6.120;2023-05-25T09:13:57;18.48;;;11.20;;
79047;SDS011;68680;50.764;6.120;2023-05-25T09:16:23;20.88;;;11.10;;
79047;SDS011;68680;50.764;6.120;2023-05-25T09:18:50;18.30;;;11.80;;
79047;SDS011;68680;50.764;6.120;2023-05-25T09:21:15;22.08;;;12.32;;
79047;SDS011;68680;50.764;6.120;2023-05-25T09:23:41;18.58;;;11.50;;
79047;SDS011;68680;50.764;6.120;2023-05-25T09:26:06;19.95;;;10.02;;
79047;SDS011;68680;50.764;6.120;2023-05-25T09:28:32;20.63;;;10.13;;
79047;SDS011;68680;50.764;6.120;2023-05-25T09:31:00;17.75;;;9.68;;
79047;SDS011;68680;50.764;6.120;2023-05-25T09:33:25;17.40;;;10.48;;
79047;SDS011;68680;50.764;6.120;2023-05-25T09:35:51;16.75;;;8.90;;
79047;SDS011;68680;50.764;6.120;2023-05-25T09:38:17;16.23;;;8.38;;
79047;SDS011;68680;50.764;6.120;2023-05-25T09:40:43;22.15;;;8.80;;
79047;SDS011;68680;50.764;6.120;2023-05-25T09:43:08;21.40;;;8.93;;
79047;SDS011;68680;50.764;6.120;2023-05-25T09:45:35;13.60;;;8.30;;
79047;SDS011;68680;50.764;6.120;2023-05-25T09:48:03;19.88;;;7.78;;
79047;SDS011;68680;50.764;6.120;2023-05-25T09:50:30;18.73;;;8.15;;
79047;SDS011;68680;50.764;6.120;2023-05-25T09:52:56;11.68;;;8.25;;
79047;SDS011;68680;50.764;6.120;2023-05-25T09:55:23;16.90;;;8.40;;
79047;SDS011;68680;50.764;6.120;2023-05-25T09:57:51;10.98;;;6.90;;
79047;SDS011;68680;50.764;6.120;2023-05-25T10:00:17;17.38;;;7.88;;
79047;SDS011;68680;50.764;6.120;2023-05-25T10:02:43;11.57;;;6.15;;
79047;SDS011;68680;50.764;6.120;2023-05-25T10:05:10;13.32;;;7.07;;
79047;SDS011;68680;50.764;6.120;2023-05-25T10:07:35;15.63;;;6.32;;
79047;SDS011;68680;50.764;6.120;2023-05-25T10:10:03;12.48;;;6.70;;
79047;SDS011;68680;50.764;6.120;2023-05-25T10:12:31;9.48;;;5.82;;
79047;SDS011;68680;50.764;6.120;2023-05-25T10:14:57;12.27;;;5.88;;
79047;SDS011;68680;50.764;6.120;2023-05-25T10:17:26;11.18;;;6.63;;
79047;SDS011;68680;50.764;6.120;2023-05-25T10:19:56;11.95;;;6.95;;
79047;SDS011;68680;50.764;6.120;2023-05-25T10:22:25;12.00;;;5.95;;
79047;SDS011;68680;50.764;6.120;2023-05-25T10:24:56;12.05;;;7.22;;
79047;SDS011;68680;50.764;6.120;2023-05-25T10:27:28;10.68;;;6.80;;
79047;SDS011;68680;50.764;6.120;2023-05-25T10:29:58;8.80;;;5.93;;
79047;SDS011;68680;50.764;6.120;2023-05-25T10:32:25;13.65;;;7.10;;
79047;SDS011;68680;50.764;6.120;2023-05-25T10:34:52;13.75;;;6.47;;
79047;SDS011;68680;50.764;6.120;2023-05-25T10:37:19;8.68;;;5.60;;
79047;SDS011;68680;50.764;6.120;2023-05-25T10:39:47;9.90;;;5.97;;
79047;SDS011;68680;50.764;6.120;2023-05-25T10:42:14;7.72;;;4.88;;
79047;SDS011;68680;50.764;6.120;2023-05-25T10:44:42;8.65;;;4.82;;
79047;SDS011;68680;50.764;6.120;2023-05-25T10:47:09;9.18;;;5.70;;
79047;SDS011;68680;50.764;6.120;2023-05-25T10:49:50;7.13;;;4.93;;
79047;SDS011;68680;50.764;6.120;2023-05-25T10:52:16;8.98;;;4.63;;
79047;SDS011;68680;50.764;6.120;2023-05-25T10:54:43;7.93;;;4.68;;
79047;SDS011;68680;50.764;6.120;2023-05-25T10:57:10;6.88;;;5.30;;
79047;SDS011;68680;50.764;6.120;2023-05-25T10:59:39;6.65;;;4.65;;
79047;SDS011;68680;50.764;6.120;2023-05-25T11:02:05;11.05;;;5.82;;
79047;SDS011;68680;50.764;6.120;2023-05-25T11:04:31;8.75;;;4.55;;
79047;SDS011;68680;50.764;6.120;2023-05-25T11:07:06;8.82;;;5.45;;
79047;SDS011;68680;50.764;6.120;2023-05-25T11:09:32;12.00;;;5.50;;
79047;SDS011;68680;50.764;6.120;2023-05-25T11:12:01;8.70;;;6.32;;
79047;SDS011;68680;50.764;6.120;2023-05-25T11:14:29;14.52;;;7.57;;
79047;SDS011;68680;50.764;6.120;2023-05-25T11:17:02;12.68;;;9.43;;
79047;SDS011;68680;50.764;6.120;2023-05-25T11:19:37;12.30;;;10.45;;
79047;SDS011;68680;50.764;6.120;2023-05-25T11:22:11;15.32;;;11.00;;
79047;SDS011;68680;50.764;6.120;2023-05-25T11:24:37;16.48;;;12.77;;
79047;SDS011;68680;50.764;6.120;2023-05-25T11:27:03;17.35;;;12.55;;
79047;SDS011;68680;50.764;6.120;2023-05-25T11:29:30;18.80;;;13.20;;
79047;SDS011;68680;50.764;6.120;2023-05-25T11:31:56;21.70;;;14.52;;
79047;SDS011;68680;50.764;6.120;2023-05-25T11:34:22;19.95;;;14.50;;
79047;SDS011;68680;50.764;6.120;2023-05-25T11:36:51;15.45;;;12.85;;
79047;SDS011;68680;50.764;6.120;2023-05-25T11:39:19;16.42;;;12.95;;
79047;SDS011;68680;50.764;6.120;2023-05-25T11:41:45;19.92;;;14.68;;
79047;SDS011;68680;50.764;6.120;2023-05-25T11:44:13;19.38;;;14.25;;
79047;SDS011;68680;50.764;6.120;2023-05-25T11:46:41;19.38;;;13.85;;
79047;SDS011;68680;50.764;6.120;2023-05-25T11:49:06;22.42;;;14.63;;
79047;SDS011;68680;50.764;6.120;2023-05-25T11:51:32;19.70;;;15.73;;
79047;SDS011;68680;50.764;6.120;2023-05-25T11:53:58;19.30;;;15.00;;
79047;SDS011;68680;50.764;6.120;2023-05-25T11:56:23;20.98;;;15.65;;
79047;SDS011;68680;50.764;6.120;2023-05-25T11:58:49;18.90;;;15.00;;
79047;SDS011;68680;50.764;6.120;2023-05-25T12:01:15;20.98;;;15.23;;
79047;SDS011;68680;50.764;6.120;2023-05-25T12:03:43;23.10;;;15.10;;
79047;SDS011;68680;50.764;6.120;2023-05-25T12:06:21;17.98;;;14.13;;
79047;SDS011;68680;50.764;6.120;2023-05-25T12:08:47;23.55;;;15.70;;
79047;SDS011;68680;50.764;6.120;2023-05-25T12:11:13;21.52;;;15.20;;
79047;SDS011;68680;50.764;6.120;2023-05-25T12:13:39;23.17;;;14.57;;
79047;SDS011;68680;50.764;6.120;2023-05-25T12:16:05;23.25;;;15.23;;
79047;SDS011;68680;50.764;6.120;2023-05-25T12:18:31;17.67;;;13.65;;
79047;SDS011;68680;50.764;6.120;2023-05-25T12:20:58;18.95;;;14.43;;
79047;SDS011;68680;50.764;6.120;2023-05-25T12:23:24;18.88;;;14.27;;
79047;SDS011;68680;50.764;6.120;2023-05-25T12:26:03;18.77;;;14.85;;
79047;SDS011;68680;50.764;6.120;2023-05-25T12:28:30;19.58;;;13.93;;
79047;SDS011;68680;50.764;6.120;2023-05-25T12:30:56;23.65;;;15.23;;
79047;SDS011;68680;50.764;6.120;2023-05-25T12:33:21;16.13;;;14.40;;
79047;SDS011;68680;50.764;6.120;2023-05-25T12:35:47;21.38;;;13.95;;
79047;SDS011;68680;50.764;6.120;2023-05-25T12:38:15;17.33;;;13.90;;
79047;SDS011;68680;50.764;6.120;2023-05-25T12:40:42;20.67;;;12.80;;
79047;SDS011;68680;50.764;6.120;2023-05-25T12:43:08;15.10;;;13.40;;
79047;SDS011;68680;50.764;6.120;2023-05-25T12:45:38;13.18;;;11.73;;
79047;SDS011;68680;50.764;6.120;2023-05-25T12:48:03;14.57;;;11.70;;
79047;SDS011;68680;50.764;6.120;2023-05-25T12:50:29;14.20;;;11.52;;
79047;SDS011;68680;50.764;6.120;2023-05-25T12:52:59;12.38;;;11.00;;
79047;SDS011;68680;50.764;6.120;2023-05-25T12:55:27;13.40;;;11.55;;
79047;SDS011;68680;50.764;6.120;2023-05-25T12:57:53;17.27;;;12.48;;
79047;SDS011;68680;50.764;6.120;2023-05-25T13:00:20;14.15;;;11.48;;
79047;SDS011;68680;50.764;6.120;2023-05-25T13:02:46;15.35;;;10.95;;
79047;SDS011;68680;50.764;6.120;2023-05-25T13:05:21;14.68;;;10.85;;
79047;SDS011;68680;50.764;6.120;2023-05-25T13:07:47;15.70;;;10.15;;
79047;SDS011;68680;50.764;6.120;2023-05-25T13:10:14;14.48;;;10.80;;
79047;SDS011;68680;50.764;6.120;2023-05-25T13:12:41;12.50;;;11.10;;
79047;SDS011;68680;50.764;6.120;2023-05-25T13:15:07;13.57;;;11.82;;
79047;SDS011;68680;50.764;6.120;2023-05-25T13:17:33;17.75;;;12.32;;
79047;SDS011;68680;50.764;6.120;2023-05-25T13:19:59;15.27;;;11.73;;
79047;SDS011;68680;50.764;6.120;2023-05-25T13:22:24;13.05;;;11.60;;
79047;SDS011;68680;50.764;6.120;2023-05-25T13:24:50;12.20;;;11.00;;
79047;SDS011;68680;50.764;6.120;2023-05-25T13:27:16;14.55;;;11.85;;
79047;SDS011;68680;50.764;6.120;2023-05-25T13:29:43;13.80;;;11.07;;
79047;SDS011;68680;50.764;6.120;2023-05-25T13:32:08;16.38;;;10.85;;
79047;SDS011;68680;50.764;6.120;2023-05-25T13:34:34;12.68;;;10.25;;
79047;SDS011;68680;50.764;6.120;2023-05-25T13:36:59;14.77;;;10.95;;
79047;SDS011;68680;50.764;6.120;2023-05-25T13:39:25;12.50;;;10.55;;
79047;SDS011;68680;50.764;6.120;2023-05-25T13:41:50;12.93;;;10.63;;
79047;SDS011;68680;50.764;6.120;2023-05-25T13:44:16;12.10;;;10.02;;
79047;SDS011;68680;50.764;6.120;2023-05-25T13:46:43;13.23;;;9.95;;
79047;SDS011;68680;50.764;6.120;2023-05-25T13:49:09;9.10;;;8.20;;
79047;SDS011;68680;50.764;6.120;2023-05-25T13:51:34;9.82;;;8.50;;
79047;SDS011;68680;50.764;6.120;2023-05-25T13:54:00;9.57;;;7.25;;
79047;SDS011;68680;50.764;6.120;2023-05-25T13:56:26;12.10;;;7.20;;
79047;SDS011;68680;50.764;6.120;2023-05-25T13:58:51;8.73;;;7.82;;
79047;SDS011;68680;50.764;6.120;2023-05-25T14:01:17;10.25;;;8.38;;
79047;SDS011;68680;50.764;6.120;2023-05-25T14:03:44;9.35;;;7.43;;
79047;SDS011;68680;50.764;6.120;2023-05-25T14:06:10;8.65;;;6.75;;
79047;SDS011;68680;50.764;6.120;2023-05-25T14:08:35;15.32;;;7.50;;
79047;SDS011;68680;50.764;6.120;2023-05-25T14:11:01;11.80;;;7.80;;
79047;SDS011;68680;50.764;6.120;2023-05-25T14:13:26;11.73;;;8.15;;
79047;SDS011;68680;50.764;6.120;2023-05-25T14:15:52;9.13;;;6.65;;
79047;SDS011;68680;50.764;6.120;2023-05-25T14:18:18;7.60;;;6.85;;
79047;SDS011;68680;50.764;6.120;2023-05-25T14:20:45;8.30;;;7.28;;
79047;SDS011;68680;50.764;6.120;2023-05-25T14:23:11;11.60;;;7.80;;
79047;SDS011;68680;50.764;6.120;2023-05-25T14:25:36;8.63;;;7.30;;
79047;SDS011;68680;50.764;6.120;2023-05-25T14:28:02;10.35;;;5.53;;